Time;durP1;ratioP1;P1;durP2;ratioP2;P2;SDS_P1;SDS_P2;PMS_P1;PMS_P2;Temp;Humidity;BMP_temperature;BMP_pressure;BME280_temperature;BME280_humidity;BME280_pressure;Samples;Min_cycle;Max_cycle;Signal;HPM_P1;HPM_P2
2023/03/21 00:00:23;;;;;;;26.27;14.60;;;9.50;99.90;;;;;;5015449;28;20493;-75
2023/03/21 00:02:48;;;;;;;25.20;14.27;;;9.50;99.90;;;;;;5015613;28;20041;-75
2023/03/21 00:05:14;;;;;;;24.23;14.48;;;9.50;99.90;;;;;;5015174;28;20046;-76
2023/03/21 00:07:39;;;;;;;21.58;13.45;;;9.50;99.90;;;;;;5015565;28;20064;-75
2023/03/21 00:10:05;;;;;;;25.05;14.30;;;9.50;99.90;;;;;;5033035;28;20512;-75
2023/03/21 00:12:31;;;;;;;24.30;13.88;;;9.50;99.90;;;;;;5015492;28;20048;-75
2023/03/21 00:15:03;;;;;;;25.52;15.40;;;9.50;99.90;;;;;;5032625;28;20033;-75
2023/03/21 00:17:31;;;;;;;23.98;13.65;;;9.50;99.90;;;;;;5032833;28;20041;-75
2023/03/21 00:19:58;;;;;;;22.30;13.88;;;9.60;99.90;;;;;;5032974;28;20440;-75
2023/03/21 00:22:24;;;;;;;24.27;14.27;;;9.60;99.90;;;;;;5014989;28;20132;-75
2023/03/21 00:24:51;;;;;;;21.77;13.35;;;9.60;99.90;;;;;;5015001;28;20049;-75
2023/03/21 00:27:18;;;;;;;27.65;14.73;;;9.60;99.90;;;;;;5015076;28;20045;-76
2023/03/21 00:29:50;;;;;;;21.88;13.15;;;9.60;99.90;;;;;;5014855;28;20537;-76
2023/03/21 00:32:17;;;;;;;20.80;13.63;;;9.50;99.90;;;;;;5015123;28;20045;-75
2023/03/21 00:34:44;;;;;;;23.70;13.82;;;9.50;99.90;;;;;;5014676;28;20108;-75
2023/03/21 00:37:15;;;;;;;24.02;13.95;;;9.50;99.90;;;;;;5014844;28;20493;-75
2023/03/21 00:39:47;;;;;;;22.33;12.68;;;9.60;99.90;;;;;;4998425;28;20041;-76
2023/03/21 00:42:14;;;;;;;23.23;13.23;;;9.60;99.90;;;;;;5014587;28;20033;-75
2023/03/21 00:44:40;;;;;;;22.42;12.57;;;9.60;99.90;;;;;;5014430;28;20049;-75
2023/03/21 00:47:06;;;;;;;21.88;13.00;;;9.50;99.90;;;;;;5032327;28;20042;-75
2023/03/21 00:49:37;;;;;;;21.15;12.95;;;9.60;99.90;;;;;;5014581;28;20049;-75
2023/03/21 00:52:05;;;;;;;20.35;12.45;;;9.60;99.90;;;;;;5014507;28;20060;-76
2023/03/21 00:54:32;;;;;;;18.73;12.18;;;9.60;99.90;;;;;;5031895;28;20125;-76
2023/03/21 00:56:57;;;;;;;20.25;11.43;;;9.60;99.90;;;;;;5014431;28;20068;-75
2023/03/21 00:59:23;;;;;;;26.95;14.05;;;9.50;99.90;;;;;;5014707;28;20081;-76
2023/03/21 01:01:48;;;;;;;37.10;16.35;;;9.60;99.90;;;;;;5014568;28;20048;-77
2023/03/21 01:04:15;;;;;;;47.58;19.88;;;9.60;99.90;;;;;;5031832;28;20033;-75
2023/03/21 01:06:42;;;;;;;48.05;20.73;;;9.60;99.90;;;;;;5014603;28;20060;-77
2023/03/21 01:09:17;;;;;;;49.83;20.13;;;9.60;99.90;;;;;;5014369;28;20044;-75
2023/03/21 01:11:44;;;;;;;60.20;22.67;;;9.60;99.90;;;;;;4997864;28;20045;-75
2023/03/21 01:14:10;;;;;;;59.08;23.40;;;9.60;99.90;;;;;;5014277;28;20439;-75
2023/03/21 01:16:36;;;;;;;58.50;23.75;;;9.60;99.90;;;;;;5014116;28;20378;-75
2023/03/21 01:19:03;;;;;;;58.95;22.20;;;9.60;99.90;;;;;;4997734;28;20033;-75
2023/03/21 01:21:30;;;;;;;68.85;25.27;;;9.60;99.90;;;;;;5031679;28;20033;-75
2023/03/21 01:23:56;;;;;;;65.00;24.63;;;9.60;99.90;;;;;;5031464;28;20103;-77
2023/03/21 01:26:21;;;;;;;70.93;24.75;;;9.60;99.90;;;;;;5014315;28;20045;-75
2023/03/21 01:28:47;;;;;;;76.22;25.90;;;9.60;99.90;;;;;;4997722;28;20046;-77
2023/03/21 01:31:14;;;;;;;68.82;27.40;;;9.60;99.90;;;;;;5014052;28;20049;-75
2023/03/21 01:33:41;;;;;;;79.40;27.85;;;9.60;99.90;;;;;;5031431;28;20485;-75
2023/03/21 01:36:07;;;;;;;60.72;25.25;;;9.60;99.90;;;;;;5013727;28;20053;-75
2023/03/21 01:38:32;;;;;;;62.25;24.13;;;9.60;99.90;;;;;;5031582;28;20077;-75
2023/03/21 01:41:01;;;;;;;68.90;27.77;;;9.60;99.90;;;;;;5015611;28;20073;-75
2023/03/21 01:43:32;;;;;;;56.13;24.30;;;9.60;99.90;;;;;;5038268;28;20079;-75
2023/03/21 01:46:07;;;;;;;61.38;25.70;;;9.60;99.90;;;;;;5020343;28;20049;-75
2023/03/21 01:48:34;;;;;;;66.35;26.38;;;9.60;99.90;;;;;;5038320;28;20056;-75
2023/03/21 01:51:00;;;;;;;66.15;27.27;;;9.60;99.90;;;;;;5038111;28;20037;-75
2023/03/21 01:53:29;;;;;;;64.35;26.25;;;9.60;99.90;;;;;;5020254;28;20548;-75
2023/03/21 01:55:58;;;;;;;55.28;24.33;;;9.60;99.90;;;;;;5038100;28;20037;-75
2023/03/21 01:58:24;;;;;;;65.60;25.13;;;9.60;99.90;;;;;;5038276;28;20038;-77
2023/03/21 02:00:51;;;;;;;54.35;24.60;;;9.60;99.90;;;;;;5038168;28;20060;-75
2023/03/21 02:03:17;;;;;;;46.90;21.33;;;9.60;99.90;;;;;;5038209;28;20076;-75
2023/03/21 02:05:59;;;;;;;61.45;25.48;;;9.60;99.90;;;;;;5020230;28;20096;-75
2023/03/21 02:08:27;;;;;;;55.92;25.40;;;9.60;99.90;;;;;;5038284;28;20117;-75
2023/03/21 02:10:52;;;;;;;47.33;22.45;;;9.60;99.90;;;;;;5038083;28;20421;-75
2023/03/21 02:13:18;;;;;;;53.33;26.02;;;9.60;99.90;;;;;;5037858;28;20045;-76
2023/03/21 02:15:55;;;;;;;56.10;25.50;;;9.60;99.90;;;;;;5037701;28;20044;-75
2023/03/21 02:18:44;;;;;;;50.72;24.20;;;9.60;99.90;;;;;;5037790;28;20094;-75
2023/03/21 02:21:53;;;;;;;47.42;23.55;;;9.70;99.90;;;;;;5019976;28;20044;-75
2023/03/21 02:24:51;;;;;;;50.30;24.92;;;9.60;99.90;;;;;;5019817;28;20046;-75
2023/03/21 02:27:20;;;;;;;46.58;23.85;;;9.60;99.90;;;;;;5037800;28;20413;-75
2023/03/21 02:30:05;;;;;;;52.63;24.80;;;9.60;99.90;;;;;;5037835;28;20120;-76
2023/03/21 02:32:54;;;;;;;53.05;24.90;;;9.60;99.90;;;;;;5019880;28;20042;-75
2023/03/21 02:35:57;;;;;;;44.00;23.02;;;9.60;99.90;;;;;;5037446;28;20090;-75
2023/03/21 02:38:53;;;;;;;50.30;23.33;;;9.60;99.90;;;;;;5019954;28;20160;-75
2023/03/21 02:41:32;;;;;;;40.15;21.27;;;9.60;99.90;;;;;;5037887;28;20115;-75
2023/03/21 02:44:18;;;;;;;48.22;23.48;;;9.60;99.90;;;;;;5037565;28;20614;-75
2023/03/21 02:47:00;;;;;;;46.50;23.80;;;9.60;99.90;;;;;;5019832;28;20493;-75
2023/03/21 02:49:32;;;;;;;41.28;22.80;;;9.60;99.90;;;;;;5020187;28;20513;-75
2023/03/21 02:51:58;;;;;;;48.58;24.52;;;9.60;99.90;;;;;;5019315;28;20041;-75
2023/03/21 02:54:26;;;;;;;50.95;25.80;;;9.60;99.90;;;;;;5015514;28;20037;-75
2023/03/21 02:56:55;;;;;;;48.70;24.95;;;9.60;99.90;;;;;;5016974;28;20041;-75
2023/03/21 02:59:23;;;;;;;42.53;24.10;;;9.70;99.90;;;;;;5016870;28;20034;-75
2023/03/21 03:01:51;;;;;;;48.38;24.48;;;9.60;99.90;;;;;;5016469;28;20124;-75
2023/03/21 03:04:19;;;;;;;52.35;25.55;;;9.60;99.90;;;;;;4998026;28;20038;-75
2023/03/21 03:07:24;;;;;;;48.97;24.25;;;9.60;99.90;;;;;;5014565;28;20048;-75
2023/03/21 03:10:07;;;;;;;52.40;25.67;;;9.60;99.90;;;;;;5000985;28;20527;-75
2023/03/21 03:13:03;;;;;;;45.03;23.38;;;9.60;99.90;;;;;;5016497;28;20083;-75
2023/03/21 03:15:44;;;;;;;47.38;22.75;;;9.60;99.90;;;;;;5016029;28;20505;-76
2023/03/21 03:18:39;;;;;;;44.85;23.70;;;9.70;99.90;;;;;;5016404;28;20596;-75
2023/03/21 03:21:20;;;;;;;43.00;21.90;;;9.60;99.90;;;;;;5016069;28;20038;-76
2023/03/21 03:24:16;;;;;;;45.50;22.75;;;9.60;99.90;;;;;;5016377;28;20095;-75
2023/03/21 03:26:58;;;;;;;40.75;20.70;;;9.60;99.90;;;;;;5016089;28;20133;-75
2023/03/21 03:29:26;;;;;;;41.47;20.80;;;9.60;99.90;;;;;;5016382;28;20445;-75
2023/03/21 03:31:58;;;;;;;41.22;19.88;;;9.60;99.90;;;;;;5015903;28;20051;-75
2023/03/21 03:34:31;;;;;;;39.50;20.77;;;9.60;99.90;;;;;;5015695;28;20522;-75
2023/03/21 03:36:58;;;;;;;;;;;9.60;99.90;;;;;;5016410;28;20504;-76
2023/03/21 03:39:34;;;;;;;45.63;22.27;;;9.60;99.90;;;;;;5033588;28;20368;-75
2023/03/21 03:42:07;;;;;;;41.38;21.38;;;9.60;99.90;;;;;;5033489;28;20465;-75
2023/03/21 03:44:35;;;;;;;36.70;19.73;;;9.60;99.90;;;;;;5015471;28;20045;-76
2023/03/21 03:47:05;;;;;;;40.65;20.35;;;9.60;99.90;;;;;;5033616;28;20444;-75
2023/03/21 03:49:42;;;;;;;41.92;19.30;;;9.60;99.90;;;;;;5033499;28;20548;-75
2023/03/21 03:52:10;;;;;;;37.03;19.48;;;9.70;99.90;;;;;;5033589;28;20037;-76
2023/03/21 03:54:38;;;;;;;40.13;20.15;;;9.70;99.90;;;;;;5015432;28;20508;-75
2023/03/21 03:57:05;;;;;;;38.00;18.35;;;9.70;99.90;;;;;;5015673;28;20067;-75
2023/03/21 03:59:34;;;;;;;39.95;19.00;;;9.60;99.90;;;;;;5033362;28;20088;-75
2023/03/21 04:02:00;;;;;;;37.75;18.90;;;9.60;99.90;;;;;;5015426;28;20052;-75
2023/03/21 04:04:27;;;;;;;32.83;17.35;;;9.60;99.90;;;;;;5032520;28;20029;-75
2023/03/21 04:06:54;;;;;;;35.42;16.52;;;9.60;99.90;;;;;;5033298;28;20046;-75
2023/03/21 04:09:20;;;;;;;34.10;15.60;;;9.60;99.90;;;;;;5015330;28;20045;-75
2023/03/21 04:11:46;;;;;;;32.15;16.92;;;9.60;99.90;;;;;;5015185;28;20037;-75
2023/03/21 04:14:11;;;;;;;35.38;17.08;;;9.70;99.90;;;;;;5032594;28;20504;-75
2023/03/21 04:16:37;;;;;;;29.90;15.82;;;9.60;99.90;;;;;;5015178;28;20042;-75
2023/03/21 04:19:03;;;;;;;32.95;16.30;;;9.70;99.90;;;;;;5015333;28;20124;-75
2023/03/21 04:21:29;;;;;;;30.83;16.10;;;9.70;99.90;;;;;;5032728;28;20508;-75
2023/03/21 04:23:54;;;;;;;28.00;15.55;;;9.70;99.90;;;;;;5032700;28;20064;-75
2023/03/21 04:26:21;;;;;;;30.42;14.88;;;9.70;99.90;;;;;;5015017;28;20046;-75
2023/03/21 04:28:47;;;;;;;24.67;14.35;;;9.70;99.90;;;;;;5032750;28;20045;-75
2023/03/21 04:31:13;;;;;;;25.33;14.38;;;9.70;99.90;;;;;;5014901;28;20049;-75
2023/03/21 04:33:40;;;;;;;27.23;13.70;;;9.70;99.90;;;;;;5014745;28;20045;-75
2023/03/21 04:36:08;;;;;;;26.70;15.13;;;9.80;99.90;;;;;;5014623;28;20501;-76
2023/03/21 04:38:33;;;;;;;27.92;14.82;;;9.70;99.90;;;;;;5032153;28;20500;-74
2023/03/21 04:41:00;;;;;;;25.70;14.85;;;9.70;99.90;;;;;;5014726;28;20095;-75
2023/03/21 04:43:27;;;;;;;28.75;15.40;;;9.70;99.90;;;;;;5032377;28;20408;-75
2023/03/21 04:45:53;;;;;;;25.48;13.52;;;9.70;99.90;;;;;;5014698;28;20049;-75
2023/03/21 04:48:23;;;;;;;24.35;14.00;;;9.70;99.90;;;;;;5032551;28;20037;-75
2023/03/21 04:50:50;;;;;;;25.98;14.52;;;9.80;99.90;;;;;;5032228;28;20046;-75
2023/03/21 04:53:15;;;;;;;26.95;13.82;;;9.70;99.90;;;;;;5014617;28;20524;-75
2023/03/21 04:55:41;;;;;;;26.58;14.90;;;9.70;99.90;;;;;;5032012;28;20124;-75
2023/03/21 04:58:07;;;;;;;27.23;15.82;;;9.80;99.90;;;;;;5014419;28;20043;-75
2023/03/21 05:00:37;;;;;;;24.75;12.95;;;9.80;99.90;;;;;;5014318;28;20073;-75
2023/03/21 05:03:09;;;;;;;28.75;15.50;;;9.70;99.90;;;;;;5014361;28;20096;-76
2023/03/21 05:05:36;;;;;;;26.75;15.00;;;9.80;99.90;;;;;;5014337;28;20485;-75
2023/03/21 05:08:03;;;;;;;24.27;13.07;;;9.80;99.90;;;;;;5032243;28;20413;-75
2023/03/21 05:10:29;;;;;;;26.45;14.48;;;9.70;99.90;;;;;;5032033;28;20049;-75
2023/03/21 05:12:54;;;;;;;25.25;14.57;;;9.70;99.90;;;;;;5014296;28;20489;-76
2023/03/21 05:15:20;;;;;;;30.35;14.90;;;9.80;99.90;;;;;;5031483;28;20045;-75
2023/03/21 05:17:47;;;;;;;28.50;15.50;;;9.80;99.90;;;;;;5031751;28;20043;-75
2023/03/21 05:20:14;;;;;;;29.85;16.48;;;9.80;99.90;;;;;;5014016;28;20049;-76
2023/03/21 05:22:40;;;;;;;26.70;14.05;;;9.70;99.90;;;;;;5014175;28;20142;-75
2023/03/21 05:25:07;;;;;;;26.95;14.63;;;9.80;99.90;;;;;;5031670;28;20116;-75
2023/03/21 05:27:33;;;;;;;21.40;12.90;;;9.70;99.90;;;;;;5031693;28;20045;-76
2023/03/21 05:30:12;;;;;;;22.58;12.90;;;9.80;99.90;;;;;;5014053;28;20045;-76
2023/03/21 05:32:37;;;;;;;25.73;13.60;;;9.80;99.90;;;;;;5014098;28;20084;-76
2023/03/21 05:35:03;;;;;;;29.45;14.68;;;9.80;99.90;;;;;;5013657;28;20444;-76
2023/03/21 05:37:29;;;;;;;23.55;13.30;;;9.80;99.90;;;;;;5014205;28;20558;-75
2023/03/21 05:39:55;;;;;;;26.35;13.50;;;9.80;99.90;;;;;;5031652;28;20033;-76
2023/03/21 05:42:21;;;;;;;28.15;13.52;;;9.80;99.90;;;;;;5013929;28;20105;-75
2023/03/21 05:44:46;;;;;;;23.88;13.27;;;9.80;99.90;;;;;;5031332;28;20044;-75
2023/03/21 05:47:13;;;;;;;23.98;12.77;;;9.80;99.90;;;;;;5031761;28;20079;-75
2023/03/21 05:49:39;;;;;;;24.55;14.02;;;9.80;99.90;;;;;;5031711;28;20041;-76
2023/03/21 05:52:05;;;;;;;22.05;13.45;;;9.80;99.90;;;;;;5031473;28;20037;-75
2023/03/21 05:54:30;;;;;;;21.17;12.88;;;9.80;99.90;;;;;;5013537;28;20116;-75
2023/03/21 05:56:56;;;;;;;22.88;12.25;;;9.80;99.90;;;;;;5031346;28;20033;-75
2023/03/21 05:59:22;;;;;;;23.02;13.02;;;9.80;99.90;;;;;;5013738;28;20411;-75
2023/03/21 06:01:47;;;;;;;27.17;15.35;;;9.80;99.90;;;;;;5031476;28;20037;-76
2023/03/21 06:04:13;;;;;;;27.33;13.95;;;9.70;99.90;;;;;;5031113;28;20060;-75
2023/03/21 06:06:38;;;;;;;23.33;13.45;;;9.80;99.90;;;;;;5013727;28;20084;-76
2023/03/21 06:09:05;;;;;;;23.10;14.70;;;9.80;99.90;;;;;;5013768;28;20041;-76
2023/03/21 06:11:34;;;;;;;24.98;14.75;;;9.80;99.90;;;;;;5013480;28;20091;-75
2023/03/21 06:14:00;;;;;;;25.55;14.98;;;9.80;99.90;;;;;;5013183;28;20041;-75
2023/03/21 06:16:27;;;;;;;23.85;15.27;;;9.80;99.90;;;;;;5013442;28;20386;-76
2023/03/21 06:18:53;;;;;;;28.65;16.17;;;9.80;99.90;;;;;;5013577;28;20052;-75
2023/03/21 06:21:19;;;;;;;25.48;15.52;;;9.80;99.90;;;;;;5013713;28;20037;-75
2023/03/21 06:23:45;;;;;;;25.15;15.35;;;9.80;99.90;;;;;;5013441;28;20099;-75
2023/03/21 06:26:12;;;;;;;29.80;15.55;;;9.80;99.90;;;;;;5013164;28;20048;-75
2023/03/21 06:28:38;;;;;;;29.83;18.67;;;9.90;99.90;;;;;;5016612;28;20424;-76
2023/03/21 06:31:04;;;;;;;29.27;16.35;;;9.80;99.90;;;;;;5017129;28;20037;-76
2023/03/21 06:33:29;;;;;;;26.58;15.25;;;9.90;99.90;;;;;;5017318;28;20095;-76
2023/03/21 06:35:57;;;;;;;26.73;16.05;;;9.90;99.90;;;;;;5016725;28;20045;-75
2023/03/21 06:38:23;;;;;;;25.75;16.25;;;9.80;99.90;;;;;;5034783;28;20042;-75
2023/03/21 06:40:49;;;;;;;28.45;16.67;;;9.90;99.90;;;;;;5000631;28;20065;-75
2023/03/21 06:43:15;;;;;;;26.92;16.67;;;9.90;99.90;;;;;;5034899;28;20076;-75
2023/03/21 06:45:42;;;;;;;28.13;16.25;;;9.90;99.90;;;;;;5016877;28;20092;-75
2023/03/21 06:48:07;;;;;;;25.67;16.10;;;9.90;99.90;;;;;;5034756;28;20037;-75
2023/03/21 06:50:33;;;;;;;28.45;15.55;;;9.90;99.90;;;;;;5016584;28;20045;-76
2023/03/21 06:52:59;;;;;;;24.73;14.68;;;9.90;99.90;;;;;;5016798;28;20058;-75
2023/03/21 06:55:27;;;;;;;27.55;15.50;;;9.90;99.90;;;;;;5034034;28;20124;-75
2023/03/21 06:57:54;;;;;;;30.65;16.35;;;9.90;99.90;;;;;;5034471;28;20041;-76
2023/03/21 07:00:20;;;;;;;25.67;15.63;;;9.90;99.90;;;;;;5034540;28;20116;-76
2023/03/21 07:02:46;;;;;;;27.85;16.15;;;9.90;99.90;;;;;;5016284;28;20042;-76
2023/03/21 07:05:12;;;;;;;30.52;17.17;;;9.90;99.90;;;;;;5034103;28;20412;-76
2023/03/21 07:07:38;;;;;;;28.48;16.20;;;10.00;99.90;;;;;;5016710;28;20041;-76
2023/03/21 07:10:05;;;;;;;27.02;16.38;;;10.00;99.90;;;;;;5016383;28;20500;-77
2023/03/21 07:12:34;;;;;;;28.02;16.65;;;10.00;99.90;;;;;;5016731;28;20049;-76
2023/03/21 07:15:01;;;;;;;28.33;16.70;;;10.00;99.90;;;;;;5016322;28;20044;-75
2023/03/21 07:17:27;;;;;;;25.83;15.65;;;10.00;99.90;;;;;;5016335;28;20037;-75
2023/03/21 07:19:52;;;;;;;25.63;16.20;;;10.00;99.90;;;;;;5016603;28;20043;-76
2023/03/21 07:22:18;;;;;;;26.38;15.32;;;10.00;99.90;;;;;;5015984;28;20495;-75
2023/03/21 07:24:47;;;;;;;24.58;14.57;;;10.00;99.90;;;;;;5015688;28;20072;-75
2023/03/21 07:27:16;;;;;;;27.30;15.93;;;10.00;99.90;;;;;;5016045;28;20041;-76
2023/03/21 07:29:43;;;;;;;24.60;15.30;;;10.00;99.90;;;;;;5016058;28;20037;-76
2023/03/21 07:32:09;;;;;;;24.17;13.98;;;10.10;99.90;;;;;;5015989;28;20056;-76
2023/03/21 07:34:35;;;;;;;24.83;14.57;;;10.10;99.90;;;;;;5015529;28;20045;-76
2023/03/21 07:37:00;;;;;;;21.00;13.30;;;10.10;99.90;;;;;;5033774;28;20140;-77
2023/03/21 07:39:26;;;;;;;21.20;12.45;;;10.10;99.90;;;;;;5032981;28;20037;-76
2023/03/21 07:41:54;;;;;;;22.48;13.18;;;10.10;99.90;;;;;;5015841;28;20034;-76
2023/03/21 07:44:21;;;;;;;20.35;13.68;;;10.20;99.90;;;;;;5033365;28;20105;-76
2023/03/21 07:46:47;;;;;;;22.25;13.60;;;10.10;99.90;;;;;;5015750;28;20536;-77
2023/03/21 07:49:12;;;;;;;19.80;12.77;;;10.20;99.90;;;;;;5015666;28;20231;-75
2023/03/21 07:51:38;;;;;;;18.27;11.55;;;10.20;99.90;;;;;;5015601;28;20627;-75
2023/03/21 07:54:04;;;;;;;17.75;11.30;;;10.20;99.90;;;;;;5033042;28;20080;-76
2023/03/21 07:56:29;;;;;;;19.75;11.07;;;10.20;99.90;;;;;;5033093;28;20519;-76
2023/03/21 07:58:55;;;;;;;16.75;10.88;;;10.30;99.90;;;;;;5015518;28;20038;-76
2023/03/21 08:01:20;;;;;;;17.55;12.20;;;10.30;99.90;;;;;;5015329;28;20041;-76
2023/03/21 08:03:46;;;;;;;17.77;10.70;;;10.30;99.90;;;;;;5033245;28;20037;-76
2023/03/21 08:06:14;;;;;;;17.15;10.75;;;10.30;99.90;;;;;;5015551;28;20042;-75
2023/03/21 08:08:39;;;;;;;17.58;10.38;;;10.30;99.90;;;;;;5015669;28;20045;-76
2023/03/21 08:11:05;;;;;;;14.00;9.30;;;10.30;99.90;;;;;;5033360;28;20086;-77
2023/03/21 08:13:32;;;;;;;14.88;9.88;;;10.30;99.90;;;;;;5033068;28;20119;-76
2023/03/21 08:15:57;;;;;;;13.05;9.63;;;10.30;99.90;;;;;;5015142;28;20052;-76
2023/03/21 08:18:23;;;;;;;13.43;8.95;;;10.30;99.90;;;;;;5015139;28;20409;-76
2023/03/21 08:20:53;;;;;;;14.52;9.32;;;10.40;99.90;;;;;;5014902;28;20038;-76
2023/03/21 08:23:19;;;;;;;12.43;8.38;;;10.40;99.90;;;;;;5032726;28;20041;-76
2023/03/21 08:25:45;;;;;;;13.52;8.57;;;10.30;99.90;;;;;;5015084;28;20052;-76
2023/03/21 08:28:11;;;;;;;10.68;6.35;;;10.30;99.90;;;;;;5032525;28;20037;-76
2023/03/21 08:30:37;;;;;;;10.02;6.22;;;10.40;99.90;;;;;;5032475;28;20124;-75
2023/03/21 08:33:03;;;;;;;10.82;6.72;;;10.30;99.90;;;;;;5032568;28;20029;-76
2023/03/21 08:35:30;;;;;;;8.63;6.18;;;10.30;99.90;;;;;;5014342;28;20404;-76
2023/03/21 08:37:56;;;;;;;8.70;6.78;;;10.30;99.90;;;;;;4998431;28;20029;-76
2023/03/21 08:40:21;;;;;;;11.65;7.05;;;10.40;99.90;;;;;;5032370;28;20461;-76
2023/03/21 08:42:47;;;;;;;11.65;7.03;;;10.30;99.90;;;;;;5014808;28;20041;-75
2023/03/21 08:45:14;;;;;;;10.38;7.43;;;10.40;99.90;;;;;;5014465;28;20080;-75
2023/03/21 08:47:40;;;;;;;11.88;8.77;;;10.30;99.90;;;;;;5014434;28;20045;-75
2023/03/21 08:50:10;;;;;;;12.68;9.27;;;10.40;99.90;;;;;;5032005;28;20044;-75
2023/03/21 08:52:36;;;;;;;12.02;8.70;;;10.40;99.90;;;;;;5013907;28;20049;-75
2023/03/21 08:55:02;;;;;;;12.98;8.85;;;10.30;99.90;;;;;;5031910;28;20045;-76
2023/03/21 08:57:29;;;;;;;13.57;9.27;;;10.40;99.90;;;;;;5014409;28;20451;-75
2023/03/21 08:59:54;;;;;;;12.93;9.32;;;10.30;99.90;;;;;;5014515;28;20116;-75
2023/03/21 09:02:20;;;;;;;11.38;8.25;;;10.30;99.90;;;;;;5014542;28;20247;-75
2023/03/21 09:04:46;;;;;;;11.15;8.63;;;10.30;99.90;;;;;;5013751;28;20480;-76
2023/03/21 09:07:13;;;;;;;14.18;9.27;;;10.40;99.90;;;;;;5014345;28;20125;-76
2023/03/21 09:09:40;;;;;;;15.32;10.23;;;10.30;99.90;;;;;;5014245;28;20164;-76
2023/03/21 09:12:05;;;;;;;14.65;9.80;;;10.30;99.90;;;;;;5014077;28;20041;-76
2023/03/21 09:14:33;;;;;;;15.18;10.55;;;10.30;99.90;;;;;;5013766;28;20037;-76
2023/03/21 09:16:59;;;;;;;14.90;10.02;;;10.30;99.90;;;;;;5014066;28;20145;-76
2023/03/21 09:19:25;;;;;;;15.38;10.27;;;10.40;99.90;;;;;;5014229;28;20445;-76
2023/03/21 09:21:52;;;;;;;16.60;10.60;;;10.40;99.90;;;;;;5013337;28;20496;-75
2023/03/21 09:24:18;;;;;;;16.10;10.70;;;10.40;99.90;;;;;;5013406;28;20425;-76
2023/03/21 09:26:44;;;;;;;20.92;12.13;;;10.40;99.90;;;;;;5013428;28;20044;-75
2023/03/21 09:29:10;;;;;;;18.65;11.85;;;10.40;99.90;;;;;;5013393;28;20044;-75
2023/03/21 09:31:35;;;;;;;20.63;12.45;;;10.30;99.90;;;;;;5013231;28;20052;-75
2023/03/21 09:34:01;;;;;;;22.45;12.45;;;10.40;99.90;;;;;;5013341;28;20041;-75
2023/03/21 09:36:27;;;;;;;18.85;13.05;;;10.40;99.90;;;;;;5008595;28;20493;-75
2023/03/21 09:38:53;;;;;;;17.92;12.13;;;10.40;99.90;;;;;;5010586;28;20046;-75
2023/03/21 09:41:36;;;;;;;17.75;12.30;;;10.40;99.90;;;;;;5012742;28;20075;-75
2023/03/21 09:44:21;;;;;;;23.30;13.85;;;10.40;99.90;;;;;;5012522;28;20060;-76
2023/03/21 09:47:18;;;;;;;19.40;12.32;;;10.40;99.90;;;;;;5022576;28;20049;-77
2023/03/21 09:49:48;;;;;;;20.83;13.30;;;10.40;99.90;;;;;;5013052;28;20515;-76
2023/03/21 09:52:23;;;;;;;22.10;13.88;;;10.40;99.90;;;;;;5012899;28;20041;-76
2023/03/21 09:54:49;;;;;;;20.85;13.55;;;10.40;99.90;;;;;;5012822;28;20501;-77
2023/03/21 09:57:30;;;;;;;21.95;14.40;;;10.40;99.90;;;;;;5012554;28;20037;-75
2023/03/21 10:00:07;;;;;;;22.80;14.90;;;10.50;99.90;;;;;;5012832;28;20038;-76
2023/03/21 10:02:46;;;;;;;22.00;14.98;;;10.50;99.90;;;;;;5013946;28;20049;-76
2023/03/21 10:05:18;;;;;;;23.17;14.93;;;10.50;99.90;;;;;;5015669;28;20045;-76
2023/03/21 10:08:03;;;;;;;22.17;14.85;;;10.40;99.90;;;;;;5016298;28;20424;-76
2023/03/21 10:10:34;;;;;;;24.55;15.18;;;10.50;99.90;;;;;;5016038;28;20045;-76
2023/03/21 10:13:00;;;;;;;23.48;14.25;;;10.40;99.90;;;;;;5016281;28;20042;-75
2023/03/21 10:15:26;;;;;;;23.23;14.93;;;10.30;99.90;;;;;;5015898;28;20127;-76
2023/03/21 10:18:01;;;;;;;25.15;15.15;;;10.40;99.90;;;;;;5016145;28;20493;-75
2023/03/21 10:20:32;;;;;;;24.75;15.57;;;10.40;99.90;;;;;;4982585;28;1479916;-75
2023/03/21 10:23:02;;;;;;;27.92;16.70;;;10.40;99.90;;;;;;5017620;28;20103;-76
2023/03/21 10:25:36;;;;;;;22.58;15.57;;;10.40;99.90;;;;;;5017411;28;20046;-75
2023/03/21 10:28:05;;;;;;;25.50;17.75;;;10.40;99.90;;;;;;5017548;28;20523;-76
2023/03/21 10:30:49;;;;;;;30.05;18.08;;;10.40;99.90;;;;;;5017355;28;20091;-76
2023/03/21 10:33:22;;;;;;;27.20;17.33;;;10.40;99.90;;;;;;5010681;28;20510;-76
2023/03/21 10:35:55;;;;;;;34.03;19.75;;;10.40;99.90;;;;;;5013097;28;20514;-75
2023/03/21 10:38:24;;;;;;;27.10;19.80;;;10.40;99.90;;;;;;5034606;28;20091;-75
2023/03/21 10:40:50;;;;;;;29.90;19.02;;;10.40;99.90;;;;;;5034386;28;20489;-75
2023/03/21 10:43:25;;;;;;;31.80;20.15;;;10.40;99.90;;;;;;5014507;28;20049;-76
2023/03/21 10:45:51;;;;;;;31.45;19.63;;;10.40;99.90;;;;;;5034259;28;20512;-75
2023/03/21 10:48:17;;;;;;;27.15;19.25;;;10.40;99.90;;;;;;5017061;28;20052;-75
2023/03/21 10:50:47;;;;;;;31.20;19.13;;;10.40;99.90;;;;;;5034003;28;20041;-75
2023/03/21 10:53:20;;;;;;;28.13;19.63;;;10.40;99.90;;;;;;5034420;28;20038;-75
2023/03/21 10:55:49;;;;;;;29.98;19.23;;;10.40;99.90;;;;;;5016007;28;20042;-76
2023/03/21 10:58:24;;;;;;;29.85;18.33;;;10.50;99.90;;;;;;5034317;28;20045;-75
2023/03/21 11:00:54;;;;;;;29.10;19.10;;;10.50;99.90;;;;;;5034364;28;20041;-76
2023/03/21 11:03:23;;;;;;;32.60;19.00;;;10.60;99.90;;;;;;5016351;28;20037;-76
2023/03/21 11:05:55;;;;;;;28.48;18.00;;;10.60;99.90;;;;;;5016535;28;20131;-76
2023/03/21 11:08:21;;;;;;;26.33;17.05;;;10.70;99.90;;;;;;5016617;28;20088;-76
2023/03/21 11:11:08;;;;;;;26.88;16.90;;;10.70;99.90;;;;;;5033679;28;20073;-76
2023/03/21 11:13:42;;;;;;;25.77;16.02;;;10.80;99.90;;;;;;5014589;28;20128;-76
2023/03/21 11:16:21;;;;;;;27.17;15.32;;;10.80;99.90;;;;;;4999070;28;20429;-76
2023/03/21 11:18:50;;;;;;;29.92;17.95;;;10.90;99.90;;;;;;5015989;28;20041;-76
2023/03/21 11:21:16;;;;;;;26.50;17.15;;;11.00;99.90;;;;;;5015867;28;20544;-76
2023/03/21 11:23:48;;;;;;;29.58;17.42;;;11.00;99.90;;;;;;5016133;28;20033;-76
2023/03/21 11:26:27;;;;;;;24.70;15.75;;;11.10;99.90;;;;;;5016093;28;20080;-76
2023/03/21 11:28:53;;;;;;;25.48;15.25;;;11.10;99.90;;;;;;5034090;28;20041;-77
2023/03/21 11:31:20;;;;;;;22.05;13.82;;;11.20;99.90;;;;;;5016034;28;20121;-76
2023/03/21 11:33:53;;;;;;;21.50;14.55;;;11.20;99.90;;;;;;5015852;28;20089;-76
2023/03/21 11:36:18;;;;;;;26.88;15.45;;;11.20;99.90;;;;;;5015877;28;20088;-76
2023/03/21 11:38:57;;;;;;;23.80;15.13;;;11.30;99.90;;;;;;5033719;28;20085;-76
2023/03/21 11:41:33;;;;;;;22.42;14.45;;;11.40;99.90;;;;;;5016128;28;20523;-76
2023/03/21 11:44:01;;;;;;;20.50;13.77;;;11.40;99.90;;;;;;5015581;28;20047;-76
2023/03/21 11:46:31;;;;;;;20.80;12.85;;;11.40;99.90;;;;;;5015981;28;20049;-76
2023/03/21 11:48:58;;;;;;;21.65;14.07;;;11.50;99.90;;;;;;4999267;28;20520;-76
2023/03/21 11:51:33;;;;;;;20.90;13.57;;;11.60;99.90;;;;;;5013516;28;20058;-76
2023/03/21 11:54:14;;;;;;;22.67;14.05;;;11.70;99.90;;;;;;5015028;28;20071;-76
2023/03/21 11:56:46;;;;;;;19.73;12.23;;;11.70;99.90;;;;;;5015546;28;20440;-76
2023/03/21 11:59:31;;;;;;;20.67;13.57;;;11.70;99.90;;;;;;5015285;28;20562;-76
2023/03/21 12:02:09;;;;;;;22.70;13.20;;;11.70;99.90;;;;;;5015329;28;20087;-77
2023/03/21 12:04:52;;;;;;;22.80;12.32;;;11.80;99.90;;;;;;5014705;28;20107;-76
2023/03/21 12:07:46;;;;;;;21.43;12.70;;;11.80;99.90;;;;;;4999126;28;20064;-74
2023/03/21 12:10:55;;;;;;;21.50;13.68;;;11.80;99.90;;;;;;5015516;28;20497;-73
2023/03/21 12:13:32;;;;;;;19.23;12.05;;;11.90;99.90;;;;;;5018385;28;20052;-73
2023/03/21 12:16:31;;;;;;;24.05;13.40;;;11.90;99.90;;;;;;5032811;28;20049;-73
2023/03/21 12:19:32;;;;;;;20.77;12.50;;;11.90;99.90;;;;;;5015515;28;20132;-73
2023/03/21 12:22:09;;;;;;;20.40;12.63;;;11.90;99.90;;;;;;5050198;22;20049;-70
2023/03/21 12:24:46;;;;;;;20.63;12.98;;;11.90;99.90;;;;;;5034118;28;20120;-71
2023/03/21 12:27:33;;;;;;;17.00;11.57;;;11.90;99.90;;;;;;5034817;28;20040;-71
2023/03/21 12:30:09;;;;;;;21.98;12.48;;;11.90;99.90;;;;;;5034674;28;20135;-71
2023/03/21 12:33:12;;;;;;;19.33;11.90;;;11.90;99.90;;;;;;5034637;28;20531;-71
2023/03/21 12:35:48;;;;;;;17.08;12.18;;;11.90;99.90;;;;;;5034857;28;20076;-71
2023/03/21 12:38:23;;;;;;;16.40;11.00;;;11.90;99.90;;;;;;5052503;28;20488;-71
2023/03/21 12:41:26;;;;;;;19.25;11.60;;;11.80;99.90;;;;;;5052543;28;20075;-71
2023/03/21 12:43:55;;;;;;;22.02;12.85;;;11.90;99.90;;;;;;5052039;28;20037;-71
2023/03/21 12:46:36;;;;;;;18.02;12.60;;;11.80;99.90;;;;;;5034284;28;20045;-71
2023/03/21 12:49:27;;;;;;;19.55;11.95;;;11.70;99.90;;;;;;5034451;28;20052;-71